createdAt,value
2022-10-19T00:02:55.670Z,100.00
2022-10-19T00:08:01.749Z,100.00
2022-10-19T00:13:04.478Z,100.00
2022-10-19T00:18:09.507Z,100.00
2022-10-19T00:23:12.306Z,100.00
2022-10-19T00:28:15.617Z,100.00
2022-10-19T00:33:22.095Z,100.00
2022-10-19T00:38:25.824Z,100.00
2022-10-19T00:43:31.678Z,100.00
2022-10-19T00:48:34.514Z,100.00
2022-10-19T00:53:37.563Z,100.00
2022-10-19T00:58:43.229Z,100.00
2022-10-19T01:03:46.870Z,100.00
2022-10-19T01:08:49.704Z,100.00
2022-10-19T01:14:06.535Z,100.00
2022-10-19T01:19:35.360Z,100.00
2022-10-19T01:24:59.655Z,100.00
2022-10-19T01:30:05.019Z,100.00
2022-10-19T01:35:14.577Z,100.00
2022-10-19T01:40:20.243Z,100.00
2022-10-19T01:45:50.183Z,100.00
2022-10-19T01:51:02.097Z,100.00
2022-10-19T01:56:05.528Z,100.00
2022-10-19T02:06:20.845Z,100.00
2022-10-19T02:11:24.751Z,100.00
2022-10-19T02:16:36.688Z,100.00
2022-10-19T02:21:40.397Z,100.00
2022-10-19T02:26:43.618Z,100.00
2022-10-19T02:31:46.634Z,100.00
2022-10-19T02:36:49.968Z,100.00
2022-10-19T02:42:10.153Z,100.00
2022-10-19T02:47:25.247Z,100.00
2022-10-19T02:52:28.045Z,100.00
2022-10-19T02:57:32.795Z,100.00
2022-10-19T03:02:36.109Z,100.00
2022-10-19T03:07:38.908Z,100.00
2022-10-19T03:12:41.711Z,100.00
2022-10-19T03:17:45.087Z,100.00
2022-10-19T03:22:47.971Z,100.00
2022-10-19T03:27:50.832Z,100.00
2022-10-19T03:32:53.636Z,100.00
2022-10-19T03:37:56.958Z,100.00
2022-10-19T03:42:59.752Z,100.00
2022-10-19T03:48:02.655Z,100.00
2022-10-19T03:53:05.562Z,100.00
2022-10-19T03:58:08.564Z,100.00
2022-10-19T04:03:11.469Z,100.00
2022-10-19T04:08:14.274Z,100.00
2022-10-19T04:13:17.075Z,100.00
2022-10-19T04:18:19.876Z,100.00
2022-10-19T04:23:22.682Z,100.00
2022-10-19T04:28:25.642Z,100.00
2022-10-19T04:33:28.695Z,100.00
2022-10-19T04:38:32.519Z,100.00
2022-10-19T04:43:36.238Z,100.00
2022-10-19T04:48:40.680Z,100.00
2022-10-19T04:53:44.323Z,100.00
2022-10-19T04:58:47.885Z,100.00
2022-10-19T05:03:54.841Z,100.00
2022-10-19T05:08:57.733Z,100.00
2022-10-19T05:14:00.529Z,100.00
2022-10-19T05:19:03.840Z,100.00
2022-10-19T05:24:06.747Z,100.00
2022-10-19T05:29:13.851Z,100.00
2022-10-19T05:34:16.651Z,100.00
2022-10-19T05:39:19.555Z,100.00
2022-10-19T05:44:24.027Z,100.00
2022-10-19T05:49:26.896Z,100.00
2022-10-19T05:54:29.656Z,100.00
2022-10-19T05:59:32.705Z,100.00
2022-10-19T06:04:35.814Z,100.00
2022-10-19T06:09:38.718Z,100.00
2022-10-19T06:14:42.753Z,100.00
2022-10-19T06:19:45.763Z,100.00
2022-10-19T06:24:48.660Z,100.00
2022-10-19T06:29:51.445Z,100.00
2022-10-19T06:34:56.384Z,100.00
2022-10-19T06:40:02.370Z,100.00
2022-10-19T06:45:09.913Z,99.86
2022-10-19T06:50:13.019Z,96.43
2022-10-19T06:55:17.450Z,94.18
2022-10-19T07:00:20.355Z,91.11
2022-10-19T07:05:23.709Z,89.59
2022-10-19T07:10:26.541Z,88.67
2022-10-19T07:15:29.441Z,88.88
2022-10-19T07:20:32.574Z,89.46
2022-10-19T07:25:36.513Z,89.21
2022-10-19T07:30:39.420Z,88.35
2022-10-19T07:35:42.643Z,87.23
2022-10-19T07:40:47.445Z,85.54
2022-10-19T07:45:50.601Z,81.96
2022-10-19T07:50:53.572Z,70.65
2022-10-19T07:55:57.360Z,63.35
2022-10-19T08:01:06.257Z,53.46
2022-10-19T08:06:11.934Z,46.70
2022-10-19T08:11:19.345Z,40.21
2022-10-19T08:16:27.270Z,34.50
2022-10-19T08:21:31.243Z,32.26
2022-10-19T08:26:37.887Z,29.77
2022-10-19T08:31:42.606Z,26.92
2022-10-19T08:36:45.549Z,27.12
2022-10-19T08:42:13.941Z,26.10
2022-10-19T08:47:35.147Z,24.19
2022-10-19T08:52:39.524Z,22.12
2022-10-19T08:58:11.038Z,21.51
2022-10-19T09:03:31.975Z,20.43
2022-10-19T09:08:46.995Z,20.09
2022-10-19T09:14:04.686Z,19.61
2022-10-19T09:19:29.575Z,22.17
2022-10-19T09:24:43.139Z,26.53
2022-10-19T09:29:55.233Z,29.98
2022-10-19T09:35:02.667Z,28.06
2022-10-19T09:40:07.251Z,25.39
2022-10-19T09:45:20.145Z,21.71
2022-10-19T09:50:27.654Z,22.32
2022-10-19T09:55:44.128Z,27.26
2022-10-19T10:00:54.543Z,32.44
2022-10-19T10:06:03.708Z,34.39
2022-10-19T10:11:15.624Z,36.60
2022-10-19T10:16:22.215Z,37.73
2022-10-19T10:21:33.730Z,32.91
2022-10-19T10:26:45.821Z,27.03
2022-10-19T10:32:13.838Z,22.40
2022-10-19T10:37:22.167Z,21.60
2022-10-19T10:42:33.389Z,21.82
2022-10-19T10:47:40.000Z,28.29
2022-10-19T10:53:03.853Z,35.51
2022-10-19T10:58:19.671Z,37.26
2022-10-19T11:03:29.018Z,32.11
2022-10-19T11:08:50.017Z,27.30
2022-10-19T11:13:59.271Z,26.46
2022-10-19T11:19:25.308Z,30.48
2022-10-19T11:24:35.373Z,33.81
2022-10-19T11:30:18.462Z,37.66
2022-10-19T11:35:30.069Z,38.80
2022-10-19T11:40:54.163Z,31.30
2022-10-19T11:46:10.899Z,26.37
2022-10-19T11:51:24.557Z,24.79
2022-10-19T11:56:58.199Z,25.40
2022-10-19T12:02:28.998Z,30.46
2022-10-19T12:07:50.278Z,35.89
2022-10-19T12:12:59.080Z,40.75
2022-10-19T12:18:15.751Z,41.30
2022-10-19T12:23:24.896Z,34.62
2022-10-19T12:28:32.416Z,28.62
2022-10-19T12:33:53.745Z,26.28
2022-10-19T12:39:01.669Z,26.44
2022-10-19T12:44:29.560Z,24.62
2022-10-19T12:49:51.924Z,22.42
2022-10-19T12:54:54.828Z,22.39
2022-10-19T13:00:01.150Z,25.13
2022-10-19T13:05:05.960Z,29.04
2022-10-19T13:10:21.046Z,31.43
2022-10-19T13:15:36.236Z,34.97
2022-10-19T13:25:46.861Z,36.49
2022-10-19T13:30:49.664Z,32.67
2022-10-19T13:35:58.617Z,30.00
2022-10-19T13:41:23.017Z,28.65
2022-10-19T13:46:28.686Z,28.27
2022-10-19T13:51:49.923Z,27.48
2022-10-19T13:57:23.339Z,28.44
2022-10-19T14:02:38.430Z,30.70
2022-10-19T14:07:50.447Z,30.65
2022-10-19T14:12:53.823Z,30.30
2022-10-19T14:18:00.252Z,30.11
2022-10-19T14:23:19.271Z,30.62
2022-10-19T14:28:23.935Z,31.41
2022-10-19T14:33:33.067Z,32.24
2022-10-19T14:38:38.695Z,34.26
2022-10-19T14:43:41.454Z,37.53
2022-10-19T14:48:47.512Z,40.15
2022-10-19T14:54:03.933Z,43.75
2022-10-19T14:59:27.500Z,47.07
2022-10-19T15:04:34.587Z,50.27
2022-10-19T15:09:48.262Z,55.13
2022-10-19T15:14:52.171Z,57.88
2022-10-19T15:19:58.562Z,60.69
2022-10-19T15:25:07.096Z,62.68
2022-10-19T15:30:18.906Z,64.07
2022-10-19T15:35:27.091Z,64.72
2022-10-19T15:40:35.674Z,66.10
2022-10-19T15:45:39.501Z,68.48
2022-10-19T15:50:48.626Z,70.27
2022-10-19T15:55:51.479Z,71.69
2022-10-19T16:00:54.355Z,72.79
2022-10-19T16:05:57.158Z,73.60
2022-10-19T16:11:00.369Z,74.50
2022-10-19T16:16:11.256Z,76.08
2022-10-19T16:21:16.162Z,76.69
2022-10-19T16:26:19.218Z,76.62
2022-10-19T16:31:23.353Z,76.83
2022-10-19T16:36:26.870Z,77.15
2022-10-19T16:41:29.718Z,77.94
2022-10-19T16:46:32.577Z,78.53
2022-10-19T16:51:41.933Z,78.39
2022-10-19T16:56:47.051Z,78.65
2022-10-19T17:01:50.170Z,78.41
2022-10-19T17:06:53.009Z,78.43
2022-10-19T17:11:56.006Z,78.89
2022-10-19T17:16:58.909Z,79.90
2022-10-19T17:22:03.145Z,79.95
2022-10-19T17:27:06.755Z,80.17
2022-10-19T17:32:09.675Z,80.58
2022-10-19T17:37:13.086Z,80.94
2022-10-19T17:42:15.895Z,81.36
2022-10-19T17:47:18.691Z,82.16
2022-10-19T17:52:21.470Z,82.47
2022-10-19T17:57:24.200Z,82.47
2022-10-19T18:02:27.127Z,83.11
2022-10-19T18:07:29.999Z,83.52
2022-10-19T18:12:32.803Z,84.32
2022-10-19T18:17:35.982Z,84.63
2022-10-19T18:22:39.814Z,85.04
2022-10-19T18:27:42.745Z,85.56
2022-10-19T18:32:49.756Z,85.52
2022-10-19T18:37:52.650Z,85.88
2022-10-19T18:42:55.759Z,86.69
2022-10-19T18:47:58.867Z,87.23
2022-10-19T18:53:01.668Z,87.16
2022-10-19T18:58:04.443Z,87.34
2022-10-19T19:03:07.347Z,87.59
2022-10-19T19:08:10.279Z,87.26
2022-10-19T19:13:13.079Z,87.29
2022-10-19T19:23:23.819Z,87.00
2022-10-19T19:28:26.707Z,87.06
2022-10-19T19:33:29.509Z,87.20
2022-10-19T19:38:32.623Z,87.21
2022-10-19T19:43:37.470Z,87.65
2022-10-19T19:48:42.628Z,87.25
2022-10-19T19:53:47.782Z,87.01
2022-10-19T19:58:58.574Z,86.95
2022-10-19T20:09:10.981Z,87.21
2022-10-19T20:14:13.942Z,88.12
2022-10-19T20:19:16.740Z,88.89
2022-10-19T20:24:19.544Z,89.33
2022-10-19T20:29:22.551Z,90.30
2022-10-19T20:34:25.352Z,90.97
2022-10-19T20:39:28.272Z,91.29
2022-10-19T20:44:31.163Z,91.44
2022-10-19T20:49:34.065Z,91.37
2022-10-19T20:54:37.479Z,91.27
2022-10-19T20:59:40.285Z,91.67
2022-10-19T21:04:43.149Z,92.67
2022-10-19T21:09:45.988Z,92.68
2022-10-19T21:14:49.199Z,92.80
2022-10-19T21:19:52.411Z,92.39
2022-10-19T21:24:55.132Z,92.17
2022-10-19T21:29:58.206Z,91.86
2022-10-19T21:35:01.707Z,91.44
2022-10-19T21:40:04.937Z,90.98
2022-10-19T21:45:29.121Z,90.81
2022-10-19T21:50:31.854Z,91.00
2022-10-19T21:55:35.780Z,91.13
2022-10-19T22:00:38.707Z,91.26
2022-10-19T22:05:50.061Z,91.02
2022-10-19T22:10:53.197Z,90.92
2022-10-19T22:15:55.907Z,91.21
2022-10-19T22:21:13.036Z,91.14
2022-10-19T22:26:17.579Z,90.93
2022-10-19T22:31:20.585Z,90.91
2022-10-19T22:36:23.487Z,91.03
2022-10-19T22:41:26.391Z,91.05
2022-10-19T22:46:29.750Z,91.40
2022-10-19T22:51:32.506Z,91.69
2022-10-19T22:56:35.514Z,91.67
2022-10-19T23:01:38.372Z,91.65
2022-10-19T23:06:41.322Z,91.71
2022-10-19T23:11:44.231Z,91.79
2022-10-19T23:16:47.032Z,91.74
2022-10-19T23:21:49.933Z,92.75
2022-10-19T23:26:53.963Z,92.87
2022-10-19T23:31:56.767Z,92.76
2022-10-19T23:36:59.565Z,92.77
2022-10-19T23:42:02.371Z,92.99
2022-10-19T23:47:05.579Z,93.29
2022-10-19T23:52:08.483Z,93.70
2022-10-19T23:57:11.291Z,94.12
